createdAt,value
2023-01-03T00:00:31.829Z,101315.78
2023-01-03T00:01:34.382Z,101306.66
2023-01-03T00:02:36.928Z,101305.88
2023-01-03T00:03:38.504Z,101306.28
2023-01-03T00:04:47.469Z,101315.41
2023-01-03T00:05:50.791Z,101310.41
2023-01-03T00:06:54.386Z,101307.59
2023-01-03T00:07:56.193Z,101314.59
2023-01-03T00:09:03.448Z,101308.81
2023-01-03T00:10:09.901Z,101317.34
2023-01-03T00:11:13.898Z,101311.50
2023-01-03T00:12:30.230Z,101312.94
2023-01-03T00:13:32.534Z,101320.75
2023-01-03T00:14:37.411Z,101318.09
2023-01-03T00:15:39.027Z,101327.00
2023-01-03T00:16:41.703Z,101324.28
2023-01-03T00:17:44.449Z,101326.94
2023-01-03T00:18:46.560Z,101330.47
2023-01-03T00:19:50.462Z,101332.78
2023-01-03T00:20:52.044Z,101329.41
2023-01-03T00:21:55.331Z,101337.38
2023-01-03T00:22:59.912Z,101328.47
2023-01-03T00:24:02.002Z,101324.69
2023-01-03T00:25:04.891Z,101338.28
2023-01-03T00:26:10.848Z,101329.44
2023-01-03T00:27:13.864Z,101331.44
2023-01-03T00:28:15.398Z,101337.56
2023-01-03T00:29:17.971Z,101339.63
2023-01-03T00:30:19.501Z,101339.53
2023-01-03T00:31:21.996Z,101338.06
2023-01-03T00:32:24.538Z,101338.25
2023-01-03T00:33:26.063Z,101334.94
2023-01-03T00:34:28.966Z,101329.66
2023-01-03T00:35:32.302Z,101335.75
2023-01-03T00:36:35.597Z,101329.59
2023-01-03T00:37:37.207Z,101341.81
2023-01-03T00:38:39.747Z,101337.28
2023-01-03T00:39:41.759Z,101345.69
2023-01-03T00:40:44.356Z,101342.94
2023-01-03T00:41:45.996Z,101338.00
2023-01-03T00:43:06.116Z,101341.00
2023-01-03T00:44:09.544Z,101339.34
2023-01-03T00:45:13.212Z,101344.38
2023-01-03T00:46:19.743Z,101339.63
2023-01-03T00:47:21.548Z,101339.31
2023-01-03T00:48:24.522Z,101345.88
2023-01-03T00:49:27.350Z,101348.50
2023-01-03T00:50:28.822Z,101343.00
2023-01-03T00:51:33.932Z,101356.56
2023-01-03T00:52:35.453Z,101356.78
2023-01-03T00:53:39.209Z,101355.06
2023-01-03T00:54:40.690Z,101357.34
2023-01-03T00:55:43.549Z,101363.16
2023-01-03T00:56:46.640Z,101361.13
2023-01-03T00:57:49.113Z,101360.69
2023-01-03T00:58:51.158Z,101362.41
2023-01-03T00:59:53.752Z,101371.03
2023-01-03T01:00:55.222Z,101372.09
2023-01-03T01:01:58.619Z,101371.13
2023-01-03T01:03:00.526Z,101372.69
2023-01-03T01:04:06.686Z,101373.41
2023-01-03T01:05:11.242Z,101374.66
2023-01-03T01:06:16.000Z,101372.97
2023-01-03T01:07:18.813Z,101378.13
2023-01-03T01:08:21.265Z,101374.84
2023-01-03T01:09:24.907Z,101373.75
2023-01-03T01:10:27.366Z,101373.31
2023-01-03T01:11:29.723Z,101384.25
2023-01-03T01:12:32.154Z,101383.66
2023-01-03T01:13:34.748Z,101380.84
2023-01-03T01:14:37.335Z,101390.59
2023-01-03T01:15:39.095Z,101393.06
2023-01-03T01:16:41.564Z,101399.06
2023-01-03T01:17:43.266Z,101397.19
2023-01-03T01:18:48.764Z,101392.91
2023-01-03T01:19:51.210Z,101396.59
2023-01-03T01:20:52.723Z,101396.88
2023-01-03T01:21:55.620Z,101396.78
2023-01-03T01:22:58.477Z,101400.88
2023-01-03T01:24:01.069Z,101402.03
2023-01-03T01:25:03.210Z,101399.56
2023-01-03T01:26:07.422Z,101406.78
2023-01-03T01:27:10.449Z,101396.97
2023-01-03T01:28:12.029Z,101404.56
2023-01-03T01:29:16.366Z,101398.16
2023-01-03T01:30:17.884Z,101410.56
2023-01-03T01:31:22.037Z,101406.81
2023-01-03T01:32:25.488Z,101406.69
2023-01-03T01:33:28.710Z,101408.63
2023-01-03T01:34:31.796Z,101407.09
2023-01-03T01:35:33.444Z,101411.72
2023-01-03T01:36:38.251Z,101414.88
2023-01-03T01:37:39.749Z,101421.81
2023-01-03T01:38:43.876Z,101424.75
2023-01-03T01:39:45.379Z,101421.44
2023-01-03T01:40:48.009Z,101417.22
2023-01-03T01:42:13.700Z,101428.94
2023-01-03T01:43:39.447Z,101427.50
2023-01-03T01:44:52.966Z,101427.41
2023-01-03T01:45:55.465Z,101442.16
2023-01-03T01:46:57.349Z,101425.16
2023-01-03T01:48:03.789Z,101432.63
2023-01-03T01:49:11.334Z,101429.22
2023-01-03T01:50:32.344Z,101435.66
2023-01-03T01:51:35.904Z,101440.63
2023-01-03T01:52:41.664Z,101446.72
2023-01-03T01:53:44.737Z,101439.38
2023-01-03T01:54:49.453Z,101448.09
2023-01-03T01:55:53.726Z,101450.56
2023-01-03T01:56:56.263Z,101447.09
2023-01-03T01:57:57.923Z,101451.13
2023-01-03T01:59:00.468Z,101450.06
2023-01-03T02:00:02.100Z,101452.06
2023-01-03T02:01:06.393Z,101441.25
2023-01-03T02:02:09.693Z,101448.91
2023-01-03T02:03:13.324Z,101452.78
2023-01-03T02:04:20.925Z,101450.53
2023-01-03T02:05:24.051Z,101454.03
2023-01-03T02:06:25.600Z,101459.78
2023-01-03T02:07:28.112Z,101460.63
2023-01-03T02:08:29.676Z,101451.22
2023-01-03T02:09:35.429Z,101451.31
2023-01-03T02:10:57.606Z,101452.44
2023-01-03T02:12:27.889Z,101454.00
2023-01-03T02:13:37.679Z,101454.16
2023-01-03T02:14:58.759Z,101453.00
2023-01-03T02:16:20.699Z,101447.50
2023-01-03T02:17:32.569Z,101453.75
2023-01-03T02:18:47.726Z,101449.41
2023-01-03T02:20:02.631Z,101453.06
2023-01-03T02:21:34.467Z,101455.59
2023-01-03T02:23:07.524Z,101454.03
2023-01-03T02:24:34.449Z,101459.66
2023-01-03T02:26:04.434Z,101450.69
2023-01-03T02:27:31.271Z,101444.44
2023-01-03T02:29:11.736Z,101445.75
2023-01-03T02:30:30.251Z,101455.00
2023-01-03T02:31:40.294Z,101442.75
2023-01-03T02:32:50.552Z,101447.22
2023-01-03T02:34:02.359Z,101452.00
2023-01-03T02:35:08.861Z,101455.06
2023-01-03T02:36:21.385Z,101451.91
2023-01-03T02:37:34.491Z,101449.03
2023-01-03T02:38:49.422Z,101453.13
2023-01-03T02:39:58.612Z,101453.19
2023-01-03T02:41:07.865Z,101445.94
2023-01-03T02:42:33.131Z,101460.19
2023-01-03T02:43:43.601Z,101463.00
2023-01-03T02:44:54.348Z,101455.88
2023-01-03T02:46:08.395Z,101459.28
2023-01-03T02:47:14.791Z,101470.38
2023-01-03T02:48:24.698Z,101467.66
2023-01-03T02:49:32.419Z,101463.97
2023-01-03T02:50:41.715Z,101475.81
2023-01-03T02:51:49.592Z,101469.06
2023-01-03T02:52:54.997Z,101469.34
2023-01-03T02:53:59.412Z,101473.13
2023-01-03T02:55:06.526Z,101466.09
2023-01-03T02:56:13.887Z,101474.59
2023-01-03T02:57:18.313Z,101476.09
2023-01-03T02:58:24.890Z,101479.66
2023-01-03T02:59:33.158Z,101476.72
2023-01-03T03:00:41.360Z,101473.88
2023-01-03T03:01:45.089Z,101477.06
2023-01-03T03:02:51.874Z,101479.56
2023-01-03T03:03:54.504Z,101475.09
2023-01-03T03:04:58.792Z,101478.50
2023-01-03T03:06:11.810Z,101474.97
2023-01-03T03:07:19.796Z,101476.59
2023-01-03T03:08:21.477Z,101473.88
2023-01-03T03:09:24.670Z,101475.53
2023-01-03T03:10:41.880Z,101477.31
2023-01-03T03:12:02.572Z,101477.53
2023-01-03T03:13:14.836Z,101480.50
2023-01-03T03:14:23.738Z,101480.00
2023-01-03T03:15:32.250Z,101477.06
2023-01-03T03:16:50.526Z,101488.75
2023-01-03T03:17:58.480Z,101474.94
2023-01-03T03:19:02.972Z,101475.44
2023-01-03T03:20:31.242Z,101476.69
2023-01-03T03:21:55.196Z,101477.16
2023-01-03T03:23:21.269Z,101478.25
2023-01-03T03:24:47.761Z,101476.69
2023-01-03T03:25:55.484Z,101473.66
2023-01-03T03:26:59.821Z,101475.31
2023-01-03T03:28:23.833Z,101472.91
2023-01-03T03:29:29.253Z,101474.59
2023-01-03T03:30:33.312Z,101468.94
2023-01-03T03:31:40.553Z,101474.47
2023-01-03T03:32:44.859Z,101475.44
2023-01-03T03:33:53.599Z,101464.44
2023-01-03T03:34:57.971Z,101467.03
2023-01-03T03:36:07.480Z,101470.31
2023-01-03T03:37:14.440Z,101462.19
2023-01-03T03:38:23.847Z,101465.13
2023-01-03T03:39:45.722Z,101467.75
2023-01-03T03:41:15.944Z,101473.75
2023-01-03T03:43:01.707Z,101476.59
2023-01-03T03:44:30.203Z,101469.84
2023-01-03T03:45:38.702Z,101470.13
2023-01-03T03:46:54.790Z,101478.69
2023-01-03T03:48:01.958Z,101479.72
2023-01-03T03:49:29.274Z,101484.25
2023-01-03T03:50:36.590Z,101491.91
2023-01-03T03:51:41.058Z,101487.19
2023-01-03T03:52:47.557Z,101490.16
2023-01-03T03:53:51.034Z,101488.03
2023-01-03T03:54:58.576Z,101489.22
2023-01-03T03:56:05.550Z,101491.34
2023-01-03T03:57:14.592Z,101504.81
2023-01-03T03:58:21.524Z,101499.59
2023-01-03T03:59:25.694Z,101493.84
2023-01-03T04:00:31.425Z,101488.63
2023-01-03T04:01:36.964Z,101500.09
2023-01-03T04:02:40.279Z,101496.69
2023-01-03T04:03:45.229Z,101495.63
2023-01-03T04:04:49.960Z,101503.16
2023-01-03T04:05:57.882Z,101511.78
2023-01-03T04:06:59.946Z,101508.53
2023-01-03T04:08:02.639Z,101501.25
2023-01-03T04:09:04.310Z,101504.09
2023-01-03T04:10:09.073Z,101513.31
2023-01-03T04:11:10.784Z,101504.72
2023-01-03T04:12:13.244Z,101511.81
2023-01-03T04:13:14.765Z,101522.34
2023-01-03T04:14:17.452Z,101522.56
2023-01-03T04:15:19.367Z,101521.72
2023-01-03T04:16:21.876Z,101526.19
2023-01-03T04:17:23.455Z,101524.91
2023-01-03T04:18:25.948Z,101518.53
2023-01-03T04:19:27.592Z,101528.69
2023-01-03T04:20:31.495Z,101528.53
2023-01-03T04:21:33.146Z,101531.31
2023-01-03T04:22:35.670Z,101531.88
2023-01-03T04:23:37.381Z,101541.53
2023-01-03T04:24:39.918Z,101532.69
2023-01-03T04:25:41.405Z,101535.91
2023-01-03T04:26:43.870Z,101538.28
2023-01-03T04:27:45.756Z,101531.41
2023-01-03T04:28:48.498Z,101531.69
2023-01-03T04:29:50.034Z,101532.91
2023-01-03T04:30:52.678Z,101535.94
2023-01-03T04:31:54.341Z,101538.22
2023-01-03T04:32:57.302Z,101540.94
2023-01-03T04:34:01.457Z,101535.91
2023-01-03T04:35:04.511Z,101546.56
2023-01-03T04:36:08.504Z,101551.78
2023-01-03T04:37:11.127Z,101553.97
2023-01-03T04:38:13.718Z,101550.25
2023-01-03T04:39:15.245Z,101551.84
2023-01-03T04:40:17.779Z,101548.22
2023-01-03T04:41:19.520Z,101554.66
2023-01-03T04:42:39.849Z,101557.28
2023-01-03T04:44:00.164Z,101554.78
2023-01-03T04:45:02.646Z,101552.78
2023-01-03T04:46:04.349Z,101558.31
2023-01-03T04:47:06.863Z,101553.75
2023-01-03T04:48:08.388Z,101549.75
2023-01-03T04:49:11.679Z,101565.00
2023-01-03T04:50:16.247Z,101556.47
2023-01-03T04:51:20.041Z,101569.41
2023-01-03T04:52:21.517Z,101553.75
2023-01-03T04:53:25.548Z,101566.19
2023-01-03T04:54:27.980Z,101561.63
2023-01-03T04:55:29.549Z,101565.31
2023-01-03T04:56:33.821Z,101565.91
2023-01-03T04:57:36.415Z,101568.94
2023-01-03T04:58:39.484Z,101567.13
2023-01-03T04:59:41.103Z,101572.75
2023-01-03T05:00:43.735Z,101575.50
2023-01-03T05:01:52.233Z,101574.03
2023-01-03T05:02:54.142Z,101571.75
2023-01-03T05:03:59.718Z,101573.72
2023-01-03T05:05:01.318Z,101575.25
2023-01-03T05:06:05.924Z,101574.78
2023-01-03T05:07:08.986Z,101572.91
2023-01-03T05:08:14.037Z,101574.50
2023-01-03T05:09:16.548Z,101579.91
2023-01-03T05:10:18.369Z,101579.44
2023-01-03T05:11:20.964Z,101570.22
2023-01-03T05:12:22.646Z,101570.94
2023-01-03T05:13:25.247Z,101572.00
2023-01-03T05:14:26.767Z,101569.91
2023-01-03T05:15:30.154Z,101572.56
2023-01-03T05:16:32.090Z,101576.75
2023-01-03T05:17:34.616Z,101574.31
2023-01-03T05:18:37.106Z,101570.03
2023-01-03T05:20:00.141Z,101573.19
2023-01-03T05:21:21.727Z,101571.88
2023-01-03T05:22:43.424Z,101577.06
2023-01-03T05:24:03.344Z,101568.34
2023-01-03T05:25:24.362Z,101575.66
2023-01-03T05:26:26.901Z,101579.03
2023-01-03T05:27:29.477Z,101573.78
2023-01-03T05:28:31.113Z,101579.38
2023-01-03T05:29:36.181Z,101584.16
2023-01-03T05:30:37.651Z,101581.78
2023-01-03T05:31:40.438Z,101587.44
2023-01-03T05:32:42.167Z,101588.84
2023-01-03T05:33:44.715Z,101585.34
2023-01-03T05:34:46.631Z,101591.53
2023-01-03T05:35:49.177Z,101590.72
2023-01-03T05:36:51.634Z,101586.00
2023-01-03T05:37:54.506Z,101587.53
2023-01-03T05:38:57.353Z,101590.06
2023-01-03T05:39:58.849Z,101590.09
2023-01-03T05:41:01.651Z,101593.31
2023-01-03T05:42:06.015Z,101591.53
2023-01-03T05:43:07.603Z,101590.41
2023-01-03T05:44:12.639Z,101591.72
2023-01-03T05:45:14.191Z,101591.31
2023-01-03T05:46:17.133Z,101588.59
2023-01-03T05:47:18.809Z,101588.50
2023-01-03T05:48:22.828Z,101590.75
2023-01-03T05:49:24.391Z,101582.19
2023-01-03T05:50:26.849Z,101593.59
2023-01-03T05:51:28.399Z,101590.28
2023-01-03T05:52:30.864Z,101581.13
2023-01-03T05:53:34.011Z,101586.16
2023-01-03T05:54:36.443Z,101586.50
2023-01-03T05:55:38.498Z,101588.28
2023-01-03T05:56:41.216Z,101589.44
2023-01-03T05:57:43.162Z,101579.09
2023-01-03T05:58:45.669Z,101587.16
2023-01-03T05:59:48.227Z,101591.03
2023-01-03T06:00:49.768Z,101592.41
2023-01-03T06:01:52.461Z,101591.56
2023-01-03T06:02:54.343Z,101593.72
2023-01-03T06:03:56.995Z,101594.63
2023-01-03T06:04:58.559Z,101597.84
2023-01-03T06:06:05.503Z,101597.50
2023-01-03T06:07:07.009Z,101590.88
2023-01-03T06:08:09.505Z,101602.59
2023-01-03T06:09:12.953Z,101603.66
2023-01-03T06:10:15.593Z,101604.84
2023-01-03T06:11:18.239Z,101607.06
2023-01-03T06:12:20.804Z,101602.44
2023-01-03T06:13:23.987Z,101610.03
2023-01-03T06:14:26.736Z,101612.03
2023-01-03T06:15:28.199Z,101611.38
2023-01-03T06:16:48.303Z,101612.44
2023-01-03T06:17:57.988Z,101616.50
2023-01-03T06:19:04.917Z,101609.97
2023-01-03T06:20:07.309Z,101622.13
2023-01-03T06:21:09.846Z,101621.09
2023-01-03T06:22:12.280Z,101620.06
2023-01-03T06:23:14.711Z,101616.41
2023-01-03T06:24:17.802Z,101623.31
2023-01-03T06:25:20.445Z,101624.78
2023-01-03T06:26:24.551Z,101623.56
2023-01-03T06:27:27.042Z,101624.34
2023-01-03T06:28:28.628Z,101626.69
2023-01-03T06:29:31.248Z,101632.44
2023-01-03T06:30:32.749Z,101627.88
2023-01-03T06:31:35.387Z,101624.38
2023-01-03T06:32:37.033Z,101612.56
2023-01-03T06:33:40.491Z,101626.44
2023-01-03T06:34:42.106Z,101623.09
2023-01-03T06:35:44.555Z,101620.84
2023-01-03T06:36:46.099Z,101621.81
2023-01-03T06:37:48.572Z,101614.84
2023-01-03T06:38:50.169Z,101612.78
2023-01-03T06:39:54.354Z,101620.75
2023-01-03T06:40:55.866Z,101623.19
2023-01-03T06:41:58.358Z,101614.16
2023-01-03T06:42:59.969Z,101615.69
2023-01-03T06:44:02.391Z,101614.19
2023-01-03T06:45:23.676Z,101613.81
2023-01-03T06:46:43.997Z,101613.44
2023-01-03T06:48:04.327Z,101617.13
2023-01-03T06:49:32.068Z,101624.81
2023-01-03T06:50:52.246Z,101617.16
2023-01-03T06:52:12.308Z,101623.78
2023-01-03T06:53:17.027Z,101620.88
2023-01-03T06:54:23.200Z,101620.44
2023-01-03T06:55:26.040Z,101625.81
2023-01-03T06:56:28.685Z,101628.09
2023-01-03T06:57:30.161Z,101631.66
2023-01-03T06:58:33.159Z,101639.53
2023-01-03T06:59:34.636Z,101638.72
2023-01-03T07:00:39.139Z,101638.31
2023-01-03T07:01:40.807Z,101635.38
2023-01-03T07:02:43.533Z,101645.97
2023-01-03T07:03:45.140Z,101649.50
2023-01-03T07:04:47.631Z,101648.28
2023-01-03T07:05:49.203Z,101654.50
2023-01-03T07:06:51.763Z,101647.22
2023-01-03T07:07:56.300Z,101652.25
2023-01-03T07:08:58.741Z,101655.34
2023-01-03T07:10:00.282Z,101658.47
2023-01-03T07:11:04.198Z,101658.88
2023-01-03T07:12:21.577Z,101658.28
2023-01-03T07:13:42.597Z,101660.78
2023-01-03T07:14:44.967Z,101654.53
2023-01-03T07:15:46.782Z,101654.13
2023-01-03T07:16:49.907Z,101667.00
2023-01-03T07:17:51.467Z,101665.56
2023-01-03T07:18:55.573Z,101669.50
2023-01-03T07:19:57.261Z,101663.22
2023-01-03T07:20:59.732Z,101669.22
2023-01-03T07:22:02.186Z,101669.50
2023-01-03T07:23:03.710Z,101672.81
2023-01-03T07:24:08.781Z,101675.09
2023-01-03T07:25:10.501Z,101664.09
2023-01-03T07:26:14.305Z,101673.22
2023-01-03T07:27:16.086Z,101679.81
2023-01-03T07:28:18.610Z,101679.44
2023-01-03T07:29:20.274Z,101680.25
2023-01-03T07:30:24.944Z,101675.28
2023-01-03T07:31:26.621Z,101678.25
2023-01-03T07:32:29.213Z,101682.19
2023-01-03T07:33:32.964Z,101672.38
2023-01-03T07:34:36.087Z,101673.34
2023-01-03T07:35:37.914Z,101676.41
2023-01-03T07:36:40.368Z,101673.44
2023-01-03T07:37:41.835Z,101673.56
2023-01-03T07:38:45.756Z,101681.19
2023-01-03T07:39:47.254Z,101677.59
2023-01-03T07:40:49.656Z,101680.28
2023-01-03T07:42:11.333Z,101683.59
2023-01-03T07:43:31.333Z,101679.00
2023-01-03T07:44:33.752Z,101686.94
2023-01-03T07:45:35.298Z,101685.44
2023-01-03T07:46:37.846Z,101688.91
2023-01-03T07:47:44.028Z,101685.78
2023-01-03T07:48:48.920Z,101689.13
2023-01-03T07:49:50.442Z,101692.19
2023-01-03T07:50:58.659Z,101688.03
2023-01-03T07:52:01.108Z,101695.09
2023-01-03T07:53:03.036Z,101693.59
2023-01-03T07:54:05.621Z,101690.50
2023-01-03T07:55:07.557Z,101694.25
2023-01-03T07:56:13.497Z,101694.69
2023-01-03T07:57:16.513Z,101690.94
2023-01-03T07:58:19.048Z,101705.03
2023-01-03T07:59:21.557Z,101701.06
2023-01-03T08:00:23.616Z,101707.09
2023-01-03T08:01:26.804Z,101706.25
2023-01-03T08:02:29.471Z,101710.88
2023-01-03T08:03:32.600Z,101710.34
2023-01-03T08:04:35.116Z,101707.75
2023-01-03T08:05:37.777Z,101706.25
2023-01-03T08:06:40.352Z,101712.72
2023-01-03T08:07:41.856Z,101714.59
2023-01-03T08:08:45.967Z,101715.81
2023-01-03T08:10:05.826Z,101712.50
2023-01-03T08:11:28.758Z,101717.53
2023-01-03T08:12:50.236Z,101712.09
2023-01-03T08:13:53.010Z,101710.47
2023-01-03T08:14:54.506Z,101718.84
2023-01-03T08:15:58.052Z,101720.50
2023-01-03T08:16:59.598Z,101723.25
2023-01-03T08:18:02.033Z,101724.88
2023-01-03T08:19:04.530Z,101722.56
2023-01-03T08:20:07.404Z,101723.00
2023-01-03T08:21:12.126Z,101725.44
2023-01-03T08:22:13.661Z,101722.06
2023-01-03T08:23:16.489Z,101721.97
2023-01-03T08:24:19.067Z,101728.56
2023-01-03T08:25:21.004Z,101728.72
2023-01-03T08:26:23.506Z,101737.56
2023-01-03T08:27:25.044Z,101728.22
2023-01-03T08:28:28.931Z,101733.72
2023-01-03T08:29:31.538Z,101735.91
2023-01-03T08:30:37.692Z,101738.53
2023-01-03T08:31:43.952Z,101737.19
2023-01-03T08:32:45.752Z,101731.75
2023-01-03T08:33:51.245Z,101734.81
2023-01-03T08:34:54.307Z,101737.69
2023-01-03T08:36:01.902Z,101730.28
2023-01-03T08:37:10.409Z,101738.88
2023-01-03T08:38:17.243Z,101742.66
2023-01-03T08:39:24.233Z,101738.56
2023-01-03T08:40:26.847Z,101737.25
2023-01-03T08:41:32.630Z,101745.59
2023-01-03T08:42:34.408Z,101730.03
2023-01-03T08:43:41.915Z,101744.88
2023-01-03T08:44:45.028Z,101744.75
2023-01-03T08:45:51.386Z,101747.88
2023-01-03T08:46:56.528Z,101746.25
2023-01-03T08:48:01.429Z,101742.00
2023-01-03T08:49:04.066Z,101745.25
2023-01-03T08:50:07.986Z,101743.69
2023-01-03T08:51:10.559Z,101745.50
2023-01-03T08:52:12.111Z,101752.50
2023-01-03T08:53:14.582Z,101745.78
2023-01-03T08:54:16.128Z,101754.75
2023-01-03T08:55:18.574Z,101758.06
2023-01-03T08:56:21.211Z,101755.28
2023-01-03T08:57:22.758Z,101757.00
2023-01-03T08:58:25.237Z,101753.06
2023-01-03T08:59:28.168Z,101757.06
2023-01-03T09:00:30.640Z,101753.09
2023-01-03T09:01:32.271Z,101752.50
2023-01-03T09:02:35.768Z,101746.53
2023-01-03T09:03:38.536Z,101754.53
2023-01-03T09:04:40.176Z,101753.56
2023-01-03T09:05:42.642Z,101757.84
2023-01-03T09:06:44.323Z,101754.88
2023-01-03T09:07:46.818Z,101759.19
2023-01-03T09:08:48.438Z,101758.66
2023-01-03T09:09:50.952Z,101761.75
2023-01-03T09:10:53.411Z,101750.59
2023-01-03T09:11:54.888Z,101764.69
2023-01-03T09:12:57.312Z,101759.34
2023-01-03T09:13:58.890Z,101760.47
2023-01-03T09:15:02.778Z,101755.56
2023-01-03T09:16:06.829Z,101761.59
2023-01-03T09:17:08.371Z,101757.84
2023-01-03T09:18:11.065Z,101762.38
2023-01-03T09:19:13.473Z,101765.66
2023-01-03T09:20:18.393Z,101767.69
2023-01-03T09:21:20.870Z,101770.78
2023-01-03T09:22:23.364Z,101763.94
2023-01-03T09:23:26.319Z,101764.75
2023-01-03T09:24:29.824Z,101762.50
2023-01-03T09:25:37.108Z,101766.41
2023-01-03T09:26:39.113Z,101771.97
2023-01-03T09:27:45.619Z,101770.00
2023-01-03T09:28:47.265Z,101771.41
2023-01-03T09:29:49.789Z,101768.91
2023-01-03T09:30:52.621Z,101766.25
2023-01-03T09:31:55.096Z,101771.22
2023-01-03T09:32:58.534Z,101769.09
2023-01-03T09:34:02.719Z,101774.88
2023-01-03T09:35:05.896Z,101772.78
2023-01-03T09:36:08.005Z,101767.25
2023-01-03T09:37:10.485Z,101775.69
2023-01-03T09:38:14.703Z,101775.56
2023-01-03T09:39:16.247Z,101780.78
2023-01-03T09:40:19.168Z,101779.81
2023-01-03T09:41:23.464Z,101775.94
2023-01-03T09:42:45.902Z,101775.13
2023-01-03T09:43:51.856Z,101778.81
2023-01-03T09:44:55.017Z,101774.31
2023-01-03T09:46:01.314Z,101776.28
2023-01-03T09:47:04.649Z,101770.63
2023-01-03T09:48:07.514Z,101771.22
2023-01-03T09:49:15.013Z,101769.53
2023-01-03T09:50:38.899Z,101771.31
2023-01-03T09:52:03.899Z,101774.16
2023-01-03T09:53:32.337Z,101773.31
2023-01-03T09:54:57.051Z,101775.72
2023-01-03T09:56:21.093Z,101776.31
2023-01-03T09:57:45.607Z,101781.59
2023-01-03T09:59:18.917Z,101775.03
2023-01-03T10:00:45.392Z,101776.28
2023-01-03T10:02:25.468Z,101773.31
2023-01-03T10:03:51.573Z,101780.41
2023-01-03T10:05:22.452Z,101780.31
2023-01-03T10:06:35.457Z,101769.66
2023-01-03T10:07:55.883Z,101776.91
2023-01-03T10:09:12.816Z,101780.50
2023-01-03T10:10:21.696Z,101773.91
2023-01-03T10:11:33.330Z,101779.03
2023-01-03T10:12:45.654Z,101776.25
2023-01-03T10:13:59.460Z,101761.44
2023-01-03T10:15:15.706Z,101771.59
2023-01-03T10:16:27.109Z,101765.00
2023-01-03T10:17:36.744Z,101770.53
2023-01-03T10:19:00.237Z,101765.47
2023-01-03T10:20:28.058Z,101766.53
2023-01-03T10:21:46.273Z,101758.50
2023-01-03T10:22:49.713Z,101760.88
2023-01-03T10:23:54.971Z,101757.88
2023-01-03T10:25:06.783Z,101761.25
2023-01-03T10:26:13.482Z,101754.34
2023-01-03T10:27:18.866Z,101750.47
2023-01-03T10:28:25.029Z,101749.78
2023-01-03T10:29:27.439Z,101749.66
2023-01-03T10:30:38.727Z,101752.19
2023-01-03T10:31:55.280Z,101748.38
2023-01-03T10:33:26.387Z,101753.84
2023-01-03T10:34:28.853Z,101747.22
2023-01-03T10:35:33.086Z,101743.53
2023-01-03T10:36:35.569Z,101750.38
2023-01-03T10:37:39.868Z,101748.06
2023-01-03T10:38:51.502Z,101743.22
2023-01-03T10:40:04.908Z,101748.47
2023-01-03T10:41:17.856Z,101744.25
2023-01-03T10:42:20.345Z,101743.94
2023-01-03T10:43:29.443Z,101746.44
2023-01-03T10:44:33.723Z,101743.66
2023-01-03T10:45:50.280Z,101746.56
2023-01-03T10:46:54.651Z,101746.94
2023-01-03T10:47:59.949Z,101747.53
2023-01-03T10:49:28.291Z,101742.75
2023-01-03T10:50:31.234Z,101743.72
2023-01-03T10:51:42.482Z,101738.38
2023-01-03T10:52:45.695Z,101743.03
2023-01-03T10:53:50.582Z,101741.53
2023-01-03T10:54:55.884Z,101742.31
2023-01-03T10:56:00.434Z,101745.88
2023-01-03T10:57:02.913Z,101748.06
2023-01-03T10:58:17.374Z,101741.19
2023-01-03T10:59:23.237Z,101739.72
2023-01-03T11:00:31.889Z,101739.13
2023-01-03T11:01:34.526Z,101743.41
2023-01-03T11:02:43.576Z,101748.78
2023-01-03T11:03:51.442Z,101737.44
2023-01-03T11:05:12.327Z,101738.13
2023-01-03T11:06:16.240Z,101739.50
2023-01-03T11:07:18.065Z,101735.63
2023-01-03T11:08:23.545Z,101734.06
2023-01-03T11:09:27.978Z,101734.75
2023-01-03T11:10:37.005Z,101741.47
2023-01-03T11:11:43.224Z,101738.41
2023-01-03T11:12:46.880Z,101745.41
2023-01-03T11:13:49.367Z,101738.19
2023-01-03T11:14:53.042Z,101747.66
2023-01-03T11:15:56.935Z,101744.00
2023-01-03T11:17:02.095Z,101743.28
2023-01-03T11:18:07.967Z,101749.53
2023-01-03T11:19:19.239Z,101736.00
2023-01-03T11:20:38.192Z,101740.69
2023-01-03T11:21:49.272Z,101735.53
2023-01-03T11:23:03.085Z,101737.69
2023-01-03T11:24:14.387Z,101737.19
2023-01-03T11:25:29.926Z,101728.34
2023-01-03T11:26:44.232Z,101735.06
2023-01-03T11:28:15.389Z,101732.13
2023-01-03T11:29:36.113Z,101736.31
2023-01-03T11:30:45.661Z,101738.31
2023-01-03T11:31:52.985Z,101729.78
2023-01-03T11:33:08.476Z,101728.72
2023-01-03T11:34:25.188Z,101730.25
2023-01-03T11:35:53.500Z,101727.13
2023-01-03T11:37:01.815Z,101726.09
2023-01-03T11:38:16.647Z,101731.94
2023-01-03T11:39:42.655Z,101732.31
2023-01-03T11:40:48.066Z,101713.59
2023-01-03T11:42:06.667Z,101712.25
2023-01-03T11:43:27.823Z,101713.03
2023-01-03T11:45:22.578Z,101711.88
2023-01-03T11:46:42.163Z,101713.94
2023-01-03T11:47:51.700Z,101714.66
2023-01-03T11:49:06.399Z,101711.09
2023-01-03T11:50:27.750Z,101713.09
2023-01-03T11:51:39.331Z,101702.78
2023-01-03T11:52:48.469Z,101708.56
2023-01-03T11:54:03.019Z,101705.28
2023-01-03T11:55:35.170Z,101705.00
2023-01-03T11:56:41.329Z,101703.22
2023-01-03T11:57:55.663Z,101705.13
2023-01-03T11:59:08.934Z,101716.41
2023-01-03T12:00:18.512Z,101705.03
2023-01-03T12:01:39.297Z,101714.47
2023-01-03T12:03:03.653Z,101718.66
2023-01-03T12:04:25.857Z,101710.31
2023-01-03T12:05:49.135Z,101712.72
2023-01-03T12:07:45.684Z,101715.81
2023-01-03T12:09:05.889Z,101707.91
2023-01-03T12:10:14.277Z,101714.59
2023-01-03T12:11:55.278Z,101710.66
2023-01-03T12:13:29.330Z,101718.16
2023-01-03T12:14:39.777Z,101709.66
2023-01-03T12:15:46.490Z,101715.56
2023-01-03T12:16:57.382Z,101710.13
2023-01-03T12:18:03.775Z,101707.69
2023-01-03T12:19:14.365Z,101707.03
2023-01-03T12:20:22.759Z,101706.13
2023-01-03T12:21:34.844Z,101703.66
2023-01-03T12:22:41.819Z,101704.38
2023-01-03T12:23:46.647Z,101710.25
2023-01-03T12:24:54.233Z,101701.91
2023-01-03T12:26:05.191Z,101700.00
2023-01-03T12:27:16.076Z,101698.63
2023-01-03T12:28:24.820Z,101709.78
2023-01-03T12:29:32.935Z,101707.28
2023-01-03T12:30:41.315Z,101711.63
2023-01-03T12:31:49.486Z,101709.88
2023-01-03T12:32:56.866Z,101711.28
2023-01-03T12:34:08.191Z,101706.75
2023-01-03T12:35:26.506Z,101713.94
2023-01-03T12:36:36.883Z,101708.47
2023-01-03T12:37:42.441Z,101709.25
2023-01-03T12:38:56.605Z,101702.09
2023-01-03T12:40:02.462Z,101693.03
2023-01-03T12:41:14.706Z,101706.00
2023-01-03T12:42:24.369Z,101706.88
2023-01-03T12:43:34.494Z,101703.88
2023-01-03T12:44:40.495Z,101701.28
2023-01-03T12:45:48.381Z,101695.75
2023-01-03T12:46:53.133Z,101695.81
2023-01-03T12:48:02.598Z,101695.59